createdAt,value
2022-11-03T00:00:38.731Z,1005.1
2022-11-03T00:01:55.025Z,1005.1
2022-11-03T00:03:11.336Z,1005
2022-11-03T00:04:27.622Z,1005
2022-11-03T00:05:43.914Z,1005
2022-11-03T00:07:00.218Z,1005.1
2022-11-03T00:08:16.515Z,1005
2022-11-03T00:09:32.803Z,1005.1
2022-11-03T00:10:48.120Z,1005.1
2022-11-03T00:12:03.435Z,1005.1
2022-11-03T00:13:19.718Z,1005.1
2022-11-03T00:14:36.024Z,1005.1
2022-11-03T00:15:52.306Z,1005.1
2022-11-03T00:17:08.596Z,1005.1
2022-11-03T00:18:24.897Z,1005.1
2022-11-03T00:19:41.199Z,1005.1
2022-11-03T00:20:57.490Z,1005.1
2022-11-03T00:22:13.789Z,1005
2022-11-03T00:23:30.082Z,1005
2022-11-03T00:24:45.404Z,1005
2022-11-03T00:26:01.687Z,1005
2022-11-03T00:27:17.988Z,1005
2022-11-03T00:28:34.283Z,1005
2022-11-03T00:29:50.578Z,1005
2022-11-03T00:31:06.865Z,1004.9
2022-11-03T00:32:23.165Z,1005
2022-11-03T00:33:39.458Z,1004.9
2022-11-03T00:34:55.741Z,1004.9
2022-11-03T00:36:12.041Z,1004.9
2022-11-03T00:37:28.340Z,1004.9
2022-11-03T00:38:44.633Z,1004.9
2022-11-03T00:40:00.940Z,1004.9
2022-11-03T00:41:16.232Z,1004.9
2022-11-03T00:42:32.535Z,1004.9
2022-11-03T00:43:48.828Z,1004.9
2022-11-03T00:45:05.115Z,1004.9
2022-11-03T00:46:21.412Z,1004.9
2022-11-03T00:48:54.010Z,1004.8
2022-11-03T00:50:10.311Z,1004.9
2022-11-03T00:51:26.601Z,1004.8
2022-11-03T00:52:42.891Z,1004.9
2022-11-03T00:53:59.187Z,1004.9
2022-11-03T00:55:15.474Z,1004.9
2022-11-03T00:56:31.767Z,1005
2022-11-03T00:57:47.081Z,1005
2022-11-03T00:59:03.387Z,1004.9
2022-11-03T01:00:19.673Z,1004.9
2022-11-03T01:01:35.974Z,1004.9
2022-11-03T01:02:52.257Z,1004.9
2022-11-03T01:04:08.562Z,1004.9
2022-11-03T01:05:24.854Z,1004.9
2022-11-03T01:06:41.141Z,1004.9
2022-11-03T01:07:57.446Z,1004.9
2022-11-03T01:09:13.744Z,1004.8
2022-11-03T01:10:30.027Z,1004.8
2022-11-03T01:11:46.316Z,1004.8
2022-11-03T01:13:02.613Z,1004.8
2022-11-03T01:14:17.941Z,1004.8
2022-11-03T01:15:34.225Z,1004.8
2022-11-03T01:16:50.530Z,1004.8
2022-11-03T01:18:06.806Z,1004.8
2022-11-03T01:19:23.119Z,1004.7
2022-11-03T01:20:39.414Z,1004.7
2022-11-03T01:21:55.699Z,1004.8
2022-11-03T01:23:11.997Z,1004.7
2022-11-03T01:24:28.281Z,1004.8
2022-11-03T01:25:44.579Z,1004.8
2022-11-03T01:27:00.869Z,1004.7
2022-11-03T01:28:17.180Z,1004.8
2022-11-03T01:29:33.474Z,1004.8
2022-11-03T01:30:48.777Z,1004.7
2022-11-03T01:32:05.076Z,1004.7
2022-11-03T01:33:21.375Z,1004.7
2022-11-03T01:34:37.667Z,1004.7
2022-11-03T01:35:53.953Z,1004.7
2022-11-03T01:37:10.248Z,1004.6
2022-11-03T01:38:26.537Z,1004.6
2022-11-03T01:39:42.844Z,1004.6
2022-11-03T01:42:15.427Z,1004.6
2022-11-03T01:43:31.721Z,1004.5
2022-11-03T01:44:48.026Z,1004.5
2022-11-03T01:46:04.317Z,1004.5
2022-11-03T01:47:19.618Z,1004.6
2022-11-03T01:48:35.925Z,1004.5
2022-11-03T01:49:52.210Z,1004.5
2022-11-03T01:51:08.503Z,1004.5
2022-11-03T01:52:24.808Z,1004.5
2022-11-03T01:53:41.107Z,1004.5
2022-11-03T01:54:57.398Z,1004.4
2022-11-03T01:56:13.691Z,1004.4
2022-11-03T01:57:29.979Z,1004.4
2022-11-03T01:58:46.274Z,1004.4
2022-11-03T02:00:02.575Z,1004.3
2022-11-03T02:01:18.000Z,1004.4
2022-11-03T02:02:35.151Z,1004.3
2022-11-03T02:03:50.476Z,1004.3
2022-11-03T02:05:06.762Z,1004.3
2022-11-03T02:06:23.065Z,1004.3
2022-11-03T02:08:55.650Z,1004.2
2022-11-03T02:10:11.951Z,1004.2
2022-11-03T02:11:28.247Z,1004.2
2022-11-03T02:12:44.537Z,1004.1
2022-11-03T02:14:00.827Z,1004.1
2022-11-03T02:15:17.130Z,1004.1
2022-11-03T02:16:33.416Z,1004.1
2022-11-03T02:17:49.703Z,1004
2022-11-03T02:19:05.998Z,1004
2022-11-03T02:20:21.314Z,1004
2022-11-03T02:21:37.613Z,1004
2022-11-03T02:22:53.914Z,1003.9
2022-11-03T02:24:10.192Z,1003.9
2022-11-03T02:25:26.497Z,1003.9
2022-11-03T02:26:42.796Z,1003.9
2022-11-03T02:27:59.075Z,1003.9
2022-11-03T02:29:15.382Z,1003.9
2022-11-03T02:30:31.670Z,1003.9
2022-11-03T02:31:47.975Z,1003.9
2022-11-03T02:33:04.257Z,1003.9
2022-11-03T02:36:53.153Z,1003.9
2022-11-03T02:38:08.461Z,1003.8
2022-11-03T02:39:24.747Z,1003.8
2022-11-03T02:40:41.056Z,1003.8
2022-11-03T02:41:57.331Z,1003.8
2022-11-03T02:43:13.645Z,1003.8
2022-11-03T02:44:29.919Z,1003.8
2022-11-03T02:45:46.214Z,1003.8
2022-11-03T02:47:02.524Z,1003.8
2022-11-03T02:49:35.100Z,1003.8
2022-11-03T02:50:50.418Z,1003.8
2022-11-03T02:52:05.728Z,1003.7
2022-11-03T02:53:22.028Z,1003.7
2022-11-03T02:54:38.331Z,1003.7
2022-11-03T02:55:54.633Z,1003.6
2022-11-03T02:57:10.911Z,1003.6
2022-11-03T02:58:27.219Z,1003.6
2022-11-03T02:59:43.510Z,1003.6
2022-11-03T03:06:04.984Z,1003.5
2022-11-03T03:21:20.504Z,1003.3
2022-11-03T03:22:35.831Z,1003.3
2022-11-03T03:23:51.147Z,1003.3
2022-11-03T03:25:06.439Z,1003.3
2022-11-03T03:26:22.751Z,1003.3
2022-11-03T03:27:39.034Z,1003.2
2022-11-03T03:28:55.327Z,1003.2
2022-11-03T03:30:11.627Z,1003.3
2022-11-03T03:31:27.913Z,1003.2
2022-11-03T03:32:44.208Z,1003.2
2022-11-03T03:45:27.162Z,1003
2022-11-03T03:46:42.465Z,1002.9
2022-11-03T03:47:58.769Z,1003
2022-11-03T03:49:15.055Z,1002.9
2022-11-03T03:50:31.355Z,1002.9
2022-11-03T03:51:47.644Z,1002.9
2022-11-03T03:53:03.946Z,1002.9
2022-11-03T03:54:20.249Z,1002.9
2022-11-03T04:00:41.699Z,1002.9
2022-11-03T04:01:57.995Z,1002.9
2022-11-03T04:03:13.304Z,1002.9
2022-11-03T04:04:29.602Z,1002.9
2022-11-03T04:05:45.909Z,1002.8
2022-11-03T04:07:02.193Z,1002.8
2022-11-03T04:08:18.502Z,1002.8
2022-11-03T04:09:34.791Z,1002.8
2022-11-03T04:10:51.084Z,1002.7
2022-11-03T04:12:07.372Z,1002.8
2022-11-03T04:13:23.662Z,1002.7
2022-11-03T06:13:12.812Z,1002
2022-11-03T06:16:12.142Z,1002
2022-11-03T06:17:27.496Z,1001.9
2022-11-03T06:18:43.792Z,1001.9
2022-11-03T06:19:59.160Z,1001.9
2022-11-03T06:21:14.514Z,1001.9
2022-11-03T06:22:30.805Z,1001.9
2022-11-03T06:23:47.105Z,1001.9
2022-11-03T06:25:03.409Z,1001.9
2022-11-03T06:26:19.716Z,1001.9
2022-11-03T06:28:52.328Z,1002
2022-11-03T06:30:08.632Z,1001.9
2022-11-03T06:32:41.225Z,1001.9
2022-11-03T06:33:57.523Z,1001.9
2022-11-03T06:35:13.844Z,1001.9
2022-11-03T06:36:30.129Z,1001.9
2022-11-03T06:37:45.494Z,1001.9
2022-11-03T06:39:01.793Z,1001.9
2022-11-03T06:40:18.100Z,1001.9
2022-11-03T06:41:34.405Z,1001.9
2022-11-03T06:42:50.692Z,1001.8
2022-11-03T06:44:06.994Z,1001.9
2022-11-03T06:45:23.314Z,1001.9
2022-11-03T06:46:39.614Z,1001.9
2022-11-03T06:47:55.899Z,1001.9
2022-11-03T06:49:11.214Z,1001.8
2022-11-03T06:50:26.468Z,1001.9
2022-11-03T06:51:42.718Z,1001.9
2022-11-03T06:52:58.948Z,1001.9
2022-11-03T06:54:15.199Z,1001.9
2022-11-03T06:55:31.443Z,1001.9
2022-11-03T06:58:03.927Z,1001.9
2022-11-03T06:59:20.162Z,1001.8
2022-11-03T07:00:36.397Z,1001.9
2022-11-03T07:01:52.649Z,1001.9
2022-11-03T07:03:08.876Z,1001.8
2022-11-03T07:04:25.119Z,1001.8
2022-11-03T07:05:41.364Z,1001.7
2022-11-03T07:06:56.609Z,1001.7
2022-11-03T07:08:12.866Z,1001.7
2022-11-03T07:09:29.097Z,1001.7
2022-11-03T07:10:45.337Z,1001.7
2022-11-03T07:12:01.588Z,1001.7
2022-11-03T07:13:17.814Z,1001.6
2022-11-03T07:14:34.056Z,1001.6
2022-11-03T07:15:50.300Z,1001.7
2022-11-03T07:17:05.556Z,1001.7
2022-11-03T07:18:20.822Z,1001.6
2022-11-03T07:19:37.064Z,1001.6
2022-11-03T07:20:53.298Z,1001.6
2022-11-03T07:22:09.552Z,1001.6
2022-11-03T07:23:25.785Z,1001.6
2022-11-03T07:24:42.021Z,1001.6
2022-11-03T07:25:58.259Z,1001.6
2022-11-03T07:27:14.502Z,1001.6
2022-11-03T08:11:43.308Z,1001.1
2022-11-03T08:12:58.644Z,1001.1
2022-11-03T08:14:14.963Z,1001.1
2022-11-03T08:15:31.261Z,1001
2022-11-03T08:16:47.565Z,1001
2022-11-03T08:18:03.857Z,1001
2022-11-03T08:20:36.474Z,1000.9
2022-11-03T08:21:52.756Z,1000.9
2022-11-03T08:23:09.062Z,1000.8
2022-11-03T08:24:25.364Z,1000.8
2022-11-03T08:25:41.675Z,1000.8
2022-11-03T08:26:57.974Z,1000.8
2022-11-03T08:28:14.276Z,1000.7
2022-11-03T08:29:29.624Z,1000.6
2022-11-03T08:30:45.935Z,1000.6
2022-11-03T08:32:02.234Z,1000.6
2022-11-03T08:33:18.544Z,1000.6
2022-11-03T08:34:34.836Z,1000.5
2022-11-03T08:37:07.434Z,1000.5
2022-11-03T08:38:23.752Z,1000.5
2022-11-03T08:39:39.045Z,1000.5
2022-11-03T08:40:54.317Z,1000.5
2022-11-03T08:43:26.787Z,1000.5
2022-11-03T08:44:43.026Z,1000.5
2022-11-03T12:27:22.770Z,996.5
2022-11-03T12:45:28.918Z,996.2
2022-11-03T12:48:29.930Z,996.1
2022-11-03T12:54:31.985Z,995.8
2022-11-03T12:57:33.002Z,995.7
2022-11-03T13:00:34.031Z,995.6
2022-11-03T13:06:36.069Z,995.5
2022-11-03T13:09:37.091Z,995.4
2022-11-03T13:12:38.123Z,995.4
2022-11-03T13:36:02.747Z,995
2022-11-03T13:40:21.754Z,995
2022-11-03T13:43:22.768Z,995
2022-11-03T13:46:23.800Z,994.9
2022-11-03T13:49:24.985Z,994.8
2022-11-03T13:52:42.206Z,994.8
2022-11-03T14:01:45.269Z,994.6
2022-11-03T14:06:12.982Z,994.4
2022-11-03T14:10:48.347Z,994.4
2022-11-03T14:16:50.395Z,994.4
2022-11-03T14:25:53.457Z,994.1
2022-11-03T14:28:54.478Z,994.1
2022-11-03T14:36:23.221Z,994
2022-11-03T14:37:57.540Z,994
2022-11-03T14:53:02.653Z,993.7
2022-11-03T14:56:03.687Z,993.6
2022-11-03T15:01:32.951Z,993.5
2022-11-03T15:04:33.980Z,993.4
2022-11-03T15:06:33.462Z,993.3
2022-11-03T15:07:51.439Z,993.3
2022-11-03T15:10:52.464Z,993.3
2022-11-03T15:13:53.481Z,993.2
2022-11-03T15:16:54.501Z,993.2
2022-11-03T15:19:55.523Z,993.1
2022-11-03T15:22:56.552Z,993
2022-11-03T15:25:57.556Z,993
2022-11-03T15:28:58.584Z,993
2022-11-03T15:31:59.603Z,992.9
2022-11-03T15:38:01.684Z,993.1
2022-11-03T15:41:02.696Z,993
2022-11-03T15:47:04.730Z,993
2022-11-03T15:56:07.796Z,992.9
2022-11-03T15:59:08.815Z,992.8
2022-11-03T16:02:09.836Z,992.8
2022-11-03T16:05:10.871Z,992.8
2022-11-03T16:06:53.921Z,992.8
2022-11-03T16:11:12.919Z,992.7
2022-11-03T16:17:14.973Z,992.5
2022-11-03T16:23:17.022Z,992.4
2022-11-03T16:26:18.027Z,992.4
2022-11-03T16:32:20.077Z,992.1
2022-11-03T16:37:04.154Z,992.1
2022-11-03T16:41:23.223Z,992
2022-11-03T16:47:25.278Z,991.9
2022-11-03T16:50:25.454Z,991.8
2022-11-03T16:52:04.068Z,991.8
2022-11-03T16:53:34.588Z,991.7
2022-11-03T16:55:05.100Z,991.6
2022-11-03T16:56:34.928Z,991.6
2022-11-03T16:57:50.525Z,991.6
2022-11-03T16:59:06.987Z,991.6
2022-11-03T17:00:22.499Z,991.6
2022-11-03T17:01:37.896Z,991.6
2022-11-03T17:02:54.254Z,991.6
2022-11-03T17:04:10.606Z,991.5
2022-11-03T17:05:26.960Z,991.5
2022-11-03T17:06:43.315Z,991.5
2022-11-03T17:07:59.673Z,991.5
2022-11-03T17:09:16.027Z,991.5
2022-11-03T17:10:32.386Z,991.4
2022-11-03T17:11:48.744Z,991.4
2022-11-03T17:13:05.103Z,991.4
2022-11-03T17:14:20.521Z,991.4
2022-11-03T17:15:35.923Z,991.3
2022-11-03T17:16:52.282Z,991.3
2022-11-03T17:18:08.627Z,991.3
2022-11-03T17:19:24.999Z,991.2
2022-11-03T17:20:41.349Z,991.2
2022-11-03T17:21:57.694Z,991.2
2022-11-03T17:23:14.057Z,991.3
2022-11-03T17:24:30.407Z,991.2
2022-11-03T17:25:46.760Z,991.2
2022-11-03T17:27:03.116Z,991.2
2022-11-03T17:28:18.555Z,991.1
2022-11-03T17:29:33.958Z,991.1
2022-11-03T17:30:50.312Z,991.1
2022-11-03T17:32:06.670Z,991
2022-11-03T17:33:23.020Z,991
2022-11-03T17:34:39.373Z,991
2022-11-03T17:35:55.728Z,991
2022-11-03T17:37:12.092Z,991
2022-11-03T17:38:28.433Z,990.9
2022-11-03T17:39:44.798Z,990.9
2022-11-03T17:41:01.151Z,990.9
2022-11-03T17:43:33.850Z,991
2022-11-03T17:44:50.218Z,991
2022-11-03T17:46:05.613Z,990.9
2022-11-03T17:47:21.968Z,990.9
2022-11-03T17:48:38.340Z,990.9
2022-11-03T17:49:54.681Z,990.9
2022-11-03T17:51:11.041Z,990.9
2022-11-03T17:52:27.389Z,990.9
2022-11-03T17:53:43.756Z,990.9
2022-11-03T17:55:00.105Z,990.8
2022-11-03T17:56:15.000Z,990.8
2022-11-03T17:57:30.789Z,990.8
2022-11-03T17:58:47.074Z,990.7
2022-11-03T18:01:19.666Z,990.7
2022-11-03T18:02:35.957Z,990.6
2022-11-03T18:03:52.252Z,990.5
2022-11-03T18:05:08.542Z,990.6
2022-11-03T18:06:24.843Z,990.6
2022-11-03T18:08:57.421Z,990.7
2022-11-03T18:10:13.712Z,990.6
2022-11-03T18:11:30.022Z,990.6
2022-11-03T18:12:45.338Z,990.6
2022-11-03T18:14:00.636Z,990.5
2022-11-03T18:15:16.929Z,990.5
2022-11-03T18:16:33.223Z,990.4
2022-11-03T18:17:49.516Z,990.4
2022-11-03T18:19:05.809Z,990.4
2022-11-03T18:20:22.099Z,990.5
2022-11-03T18:21:38.405Z,990.5
2022-11-03T18:22:54.693Z,990.4
2022-11-03T18:24:10.995Z,990.5
2022-11-03T18:25:27.290Z,990.5
2022-11-03T18:26:42.599Z,990.4
2022-11-03T18:27:57.915Z,990.4
2022-11-03T18:29:14.206Z,990.3
2022-11-03T18:31:46.794Z,990.2
2022-11-03T18:33:03.090Z,990.2
2022-11-03T18:34:19.376Z,990.2
2022-11-03T18:35:35.673Z,990.2
2022-11-03T18:36:51.975Z,990.1
2022-11-03T18:38:08.260Z,990.2
2022-11-03T18:39:24.566Z,990.1
2022-11-03T18:40:40.849Z,990.2
2022-11-03T18:41:57.149Z,990.2
2022-11-03T18:43:13.432Z,990.1
2022-11-03T18:44:28.755Z,990.1
2022-11-03T18:45:45.038Z,990.1
2022-11-03T18:47:01.340Z,990.1
2022-11-03T18:48:17.633Z,990
2022-11-03T18:49:33.937Z,989.9
2022-11-03T18:50:50.226Z,989.9
2022-11-03T18:52:06.509Z,989.8
2022-11-03T18:53:22.801Z,989.8
2022-11-03T18:54:39.114Z,989.8
2022-11-03T18:55:55.397Z,990
2022-11-03T18:57:11.691Z,989.9
2022-11-03T18:58:27.993Z,989.9
2022-11-03T18:59:44.270Z,989.8
2022-11-03T19:01:00.575Z,989.9
2022-11-03T19:02:15.875Z,989.9
2022-11-03T19:03:32.183Z,989.8
2022-11-03T19:04:48.464Z,989.8
2022-11-03T19:06:04.756Z,989.9
2022-11-03T19:07:21.064Z,989.8
2022-11-03T19:08:37.342Z,989.8
2022-11-03T19:09:53.650Z,989.7
2022-11-03T19:11:09.952Z,989.7
2022-11-03T19:12:26.236Z,989.6
2022-11-03T19:13:42.527Z,989.5
2022-11-03T19:14:58.821Z,989.6
2022-11-03T19:16:15.125Z,989.5
2022-11-03T19:17:31.411Z,989.5
2022-11-03T19:18:46.715Z,989.5
2022-11-03T19:20:03.014Z,989.5
2022-11-03T19:21:19.301Z,989.5
2022-11-03T19:22:35.595Z,989.4
2022-11-03T19:23:51.906Z,989.3
2022-11-03T19:25:08.181Z,989.4
2022-11-03T19:26:24.476Z,989.4
2022-11-03T19:27:40.782Z,989.3
2022-11-03T19:28:57.070Z,989.3
2022-11-03T19:30:13.361Z,989.3
2022-11-03T19:31:29.666Z,989.3
2022-11-03T19:32:45.959Z,989.3
2022-11-03T19:34:02.253Z,989.2
2022-11-03T19:35:17.557Z,989.2
2022-11-03T19:36:33.858Z,989.2
2022-11-03T19:37:50.161Z,989.1
2022-11-03T19:39:06.454Z,989.1
2022-11-03T19:40:22.733Z,989.1
2022-11-03T19:41:39.026Z,989.1
2022-11-03T19:42:55.337Z,989.1
2022-11-03T19:44:11.624Z,989.1
2022-11-03T19:45:26.945Z,989
2022-11-03T19:47:59.530Z,989
2022-11-03T19:49:15.818Z,989
2022-11-03T19:50:32.118Z,989
2022-11-03T19:51:48.416Z,989
2022-11-03T19:53:04.707Z,989
2022-11-03T19:54:21.007Z,989
2022-11-03T19:55:37.299Z,989
2022-11-03T19:56:53.590Z,988.9
2022-11-03T19:58:09.873Z,988.9
2022-11-03T19:59:26.176Z,988.9
2022-11-03T20:00:42.468Z,989
2022-11-03T20:01:57.784Z,988.9
2022-11-03T20:03:14.069Z,989
2022-11-03T20:04:30.364Z,988.9
2022-11-03T20:05:46.673Z,988.9
2022-11-03T20:07:02.968Z,988.9
2022-11-03T20:08:19.262Z,988.9
2022-11-03T20:09:35.535Z,988.9
2022-11-03T20:10:51.835Z,988.8
2022-11-03T20:12:08.125Z,988.9
2022-11-03T20:13:24.432Z,988.9
2022-11-03T20:14:40.728Z,988.8
2022-11-03T20:15:57.026Z,988.9
2022-11-03T20:17:13.316Z,988.8
2022-11-03T20:18:28.616Z,988.9
2022-11-03T20:19:44.928Z,988.8
2022-11-03T20:21:01.204Z,988.9
2022-11-03T20:22:17.508Z,988.8
2022-11-03T20:23:33.799Z,988.8
2022-11-03T20:24:50.096Z,988.9
2022-11-03T20:26:06.388Z,988.8
2022-11-03T20:27:22.685Z,988.8
2022-11-03T20:28:38.975Z,988.8
2022-11-03T20:29:55.269Z,988.8
2022-11-03T20:31:11.567Z,988.7
2022-11-03T20:32:27.854Z,988.7
2022-11-03T20:33:44.161Z,988.6
2022-11-03T20:34:59.462Z,988.6
2022-11-03T20:36:15.761Z,988.6
2022-11-03T20:37:32.062Z,988.6
2022-11-03T20:38:48.349Z,988.5
2022-11-03T20:40:04.640Z,988.6
2022-11-03T20:41:20.927Z,988.5
2022-11-03T20:42:37.238Z,988.5
2022-11-03T20:43:53.535Z,988.5
2022-11-03T20:45:09.820Z,988.5
2022-11-03T20:46:26.106Z,988.5
2022-11-03T20:47:42.398Z,988.5
2022-11-03T20:48:58.696Z,988.5
2022-11-03T20:50:14.989Z,988.5
2022-11-03T20:51:30.304Z,988.5
2022-11-03T20:52:46.607Z,988.5
2022-11-03T20:54:02.897Z,988.5
2022-11-03T20:56:35.488Z,988.4
2022-11-03T20:57:51.783Z,988.5
2022-11-03T20:59:08.067Z,988.5
2022-11-03T21:00:24.365Z,988.5
2022-11-03T21:01:40.653Z,988.4
2022-11-03T21:02:56.963Z,988.5
2022-11-03T21:04:13.241Z,988.5
2022-11-03T21:05:29.536Z,988.4
2022-11-03T21:06:45.840Z,988.4
2022-11-03T21:08:01.155Z,988.3
2022-11-03T21:09:17.440Z,988.4
2022-11-03T21:10:33.736Z,988.3
2022-11-03T21:11:50.038Z,988.3
2022-11-03T21:13:06.332Z,988.3
2022-11-03T21:14:22.628Z,988.2
2022-11-03T21:15:38.908Z,988.2
2022-11-03T21:16:55.213Z,988.3
2022-11-03T21:18:11.505Z,988.2
2022-11-03T21:19:27.804Z,988.2
2022-11-03T21:20:44.089Z,988.2
2022-11-03T21:22:00.387Z,988.2
2022-11-03T21:23:16.688Z,988.2
2022-11-03T21:24:31.992Z,988.2
2022-11-03T21:25:48.284Z,988.2
2022-11-03T21:27:04.577Z,988.2
2022-11-03T21:28:20.869Z,988.2
2022-11-03T21:29:37.166Z,988.2
2022-11-03T21:30:53.460Z,988.1
2022-11-03T21:32:09.748Z,988.1
2022-11-03T21:33:26.052Z,988.1
2022-11-03T21:34:42.346Z,988.1
2022-11-03T21:35:58.635Z,988
2022-11-03T21:37:14.937Z,988
2022-11-03T21:38:31.234Z,988
2022-11-03T21:39:47.524Z,988
2022-11-03T21:41:02.833Z,988
2022-11-03T21:42:19.119Z,988
2022-11-03T21:43:35.420Z,988
2022-11-03T21:44:51.726Z,988.1
2022-11-03T21:46:08.008Z,988.1
2022-11-03T21:47:24.313Z,988.1
2022-11-03T21:48:40.596Z,988.1
2022-11-03T21:49:56.897Z,988.1
2022-11-03T21:51:13.192Z,988.2
2022-11-03T21:52:29.494Z,988.2
2022-11-03T21:53:45.774Z,988.2
2022-11-03T21:55:02.074Z,988.2
2022-11-03T21:56:18.359Z,988.2
2022-11-03T21:57:33.686Z,988.1
2022-11-03T21:58:49.965Z,988.2
2022-11-03T22:00:06.275Z,988.2
2022-11-03T22:01:22.561Z,988.2
2022-11-03T22:02:38.861Z,988.2
2022-11-03T22:03:55.149Z,988.2
2022-11-03T22:05:11.441Z,988.2
2022-11-03T22:06:27.744Z,988.2
2022-11-03T22:07:44.041Z,988.2
2022-11-03T22:09:00.324Z,988.2
2022-11-03T22:10:16.626Z,988.2
2022-11-03T22:11:32.922Z,988.2
2022-11-03T22:12:49.213Z,988.2
2022-11-03T22:14:05.514Z,988.2
2022-11-03T22:15:20.823Z,988.2
2022-11-03T22:16:37.118Z,988.2
2022-11-03T22:17:53.414Z,988.2
2022-11-03T22:19:09.695Z,988.2
2022-11-03T22:20:25.994Z,988.1
2022-11-03T22:21:42.297Z,988.2
2022-11-03T22:22:58.583Z,988.1
2022-11-03T22:24:14.886Z,988.1
2022-11-03T22:25:31.182Z,988.1
2022-11-03T22:26:47.476Z,988.1
2022-11-03T22:28:03.765Z,988
2022-11-03T22:29:20.053Z,988
2022-11-03T22:30:36.340Z,987.9
2022-11-03T22:31:51.653Z,987.9
2022-11-03T22:33:07.962Z,988
2022-11-03T22:35:40.543Z,987.9
2022-11-03T22:36:56.842Z,987.8
2022-11-03T22:38:13.134Z,987.8
2022-11-03T22:39:29.419Z,987.9
2022-11-03T22:40:45.730Z,987.9
2022-11-03T22:42:02.018Z,987.9
2022-11-03T22:43:18.312Z,987.9
2022-11-03T22:44:34.605Z,987.8
2022-11-03T22:45:50.909Z,987.8
2022-11-03T22:47:07.191Z,987.9
2022-11-03T22:48:22.510Z,987.8
2022-11-03T22:49:38.805Z,987.8
2022-11-03T22:50:55.106Z,987.7
2022-11-03T22:52:11.388Z,987.7
2022-11-03T22:53:27.685Z,987.7
2022-11-03T22:54:43.990Z,987.7
2022-11-03T22:56:00.269Z,987.7
2022-11-03T22:57:16.568Z,987.6
2022-11-03T22:58:32.858Z,987.6
2022-11-03T22:59:49.154Z,987.7
2022-11-03T23:01:05.457Z,987.6
2022-11-03T23:02:21.738Z,987.6
2022-11-03T23:03:38.038Z,987.6
2022-11-03T23:04:53.345Z,987.5
